sensor_id;sensor_type;location;lat;lon;timestamp;temperature;humidity
48589;DHT22;34369;51.174;6.738;2023-02-25T00:04:08;4.00;67.40
48589;DHT22;34369;51.174;6.738;2023-02-25T00:06:42;3.90;67.40
48589;DHT22;34369;51.174;6.738;2023-02-25T00:09:18;3.90;67.40
48589;DHT22;34369;51.174;6.738;2023-02-25T00:11:50;3.90;67.50
48589;DHT22;34369;51.174;6.738;2023-02-25T00:14:22;3.90;67.60
48589;DHT22;34369;51.174;6.738;2023-02-25T00:16:54;3.90;67.60
48589;DHT22;34369;51.174;6.738;2023-02-25T00:19:28;3.90;67.70
48589;DHT22;34369;51.174;6.738;2023-02-25T00:22:00;3.90;67.60
48589;DHT22;34369;51.174;6.738;2023-02-25T00:24:31;3.90;67.60
48589;DHT22;34369;51.174;6.738;2023-02-25T00:27:03;3.90;67.60
48589;DHT22;34369;51.174;6.738;2023-02-25T00:29:35;3.90;67.60
48589;DHT22;34369;51.174;6.738;2023-02-25T00:32:07;3.90;67.60
48589;DHT22;34369;51.174;6.738;2023-02-25T00:34:40;3.90;67.60
48589;DHT22;34369;51.174;6.738;2023-02-25T00:37:13;3.90;67.70
48589;DHT22;34369;51.174;6.738;2023-02-25T00:39:45;3.90;67.70
48589;DHT22;34369;51.174;6.738;2023-02-25T00:42:18;3.90;67.70
48589;DHT22;34369;51.174;6.738;2023-02-25T00:44:50;3.90;67.70
48589;DHT22;34369;51.174;6.738;2023-02-25T00:47:22;3.80;67.70
48589;DHT22;34369;51.174;6.738;2023-02-25T00:49:55;3.80;67.70
48589;DHT22;34369;51.174;6.738;2023-02-25T00:52:27;3.80;67.60
48589;DHT22;34369;51.174;6.738;2023-02-25T00:54:59;3.80;67.50
48589;DHT22;34369;51.174;6.738;2023-02-25T00:57:31;3.80;67.40
48589;DHT22;34369;51.174;6.738;2023-02-25T01:00:04;3.80;67.30
48589;DHT22;34369;51.174;6.738;2023-02-25T01:02:39;3.80;67.20
48589;DHT22;34369;51.174;6.738;2023-02-25T01:05:14;3.70;67.20
48589;DHT22;34369;51.174;6.738;2023-02-25T01:07:46;3.70;67.20
48589;DHT22;34369;51.174;6.738;2023-02-25T01:10:18;3.70;67.20
48589;DHT22;34369;51.174;6.738;2023-02-25T01:12:50;3.70;67.20
48589;DHT22;34369;51.174;6.738;2023-02-25T01:15:21;3.60;67.30
48589;DHT22;34369;51.174;6.738;2023-02-25T01:17:53;3.60;67.20
48589;DHT22;34369;51.174;6.738;2023-02-25T01:20:26;3.60;67.30
48589;DHT22;34369;51.174;6.738;2023-02-25T01:22:59;3.60;67.30
48589;DHT22;34369;51.174;6.738;2023-02-25T01:25:31;3.60;67.30
48589;DHT22;34369;51.174;6.738;2023-02-25T01:28:04;3.60;67.30
48589;DHT22;34369;51.174;6.738;2023-02-25T01:30:36;3.60;67.30
48589;DHT22;34369;51.174;6.738;2023-02-25T01:33:08;3.60;67.30
48589;DHT22;34369;51.174;6.738;2023-02-25T01:35:41;3.60;67.40
48589;DHT22;34369;51.174;6.738;2023-02-25T01:38:13;3.50;67.30
48589;DHT22;34369;51.174;6.738;2023-02-25T01:40:45;3.50;67.30
48589;DHT22;34369;51.174;6.738;2023-02-25T01:43:17;3.50;67.20
48589;DHT22;34369;51.174;6.738;2023-02-25T01:45:49;3.50;67.20
48589;DHT22;34369;51.174;6.738;2023-02-25T01:48:26;3.50;67.20
48589;DHT22;34369;51.174;6.738;2023-02-25T01:51:02;3.50;67.20
48589;DHT22;34369;51.174;6.738;2023-02-25T01:53:41;3.50;67.00
48589;DHT22;34369;51.174;6.738;2023-02-25T01:56:15;3.50;66.90
48589;DHT22;34369;51.174;6.738;2023-02-25T01:58:50;3.50;67.00
48589;DHT22;34369;51.174;6.738;2023-02-25T02:01:25;3.50;67.00
48589;DHT22;34369;51.174;6.738;2023-02-25T02:04:01;3.50;67.00
48589;DHT22;34369;51.174;6.738;2023-02-25T02:06:38;3.50;67.00
48589;DHT22;34369;51.174;6.738;2023-02-25T02:09:13;3.60;67.00
48589;DHT22;34369;51.174;6.738;2023-02-25T02:11:46;3.50;67.00
48589;DHT22;34369;51.174;6.738;2023-02-25T02:14:20;3.60;67.00
48589;DHT22;34369;51.174;6.738;2023-02-25T02:17:08;3.50;67.10
48589;DHT22;34369;51.174;6.738;2023-02-25T02:20:09;3.60;67.10
48589;DHT22;34369;51.174;6.738;2023-02-25T02:22:52;3.60;67.00
48589;DHT22;34369;51.174;6.738;2023-02-25T02:29:47;3.60;67.10
48589;DHT22;34369;51.174;6.738;2023-02-25T02:32:41;3.60;67.00
48589;DHT22;34369;51.174;6.738;2023-02-25T02:35:21;3.60;66.90
48589;DHT22;34369;51.174;6.738;2023-02-25T02:38:02;3.60;67.00
48589;DHT22;34369;51.174;6.738;2023-02-25T02:40:46;3.60;67.00
48589;DHT22;34369;51.174;6.738;2023-02-25T02:43:33;3.60;67.00
48589;DHT22;34369;51.174;6.738;2023-02-25T02:46:13;3.50;66.90
48589;DHT22;34369;51.174;6.738;2023-02-25T02:48:53;3.60;67.00
48589;DHT22;34369;51.174;6.738;2023-02-25T02:51:36;3.50;67.00
48589;DHT22;34369;51.174;6.738;2023-02-25T02:54:11;3.50;67.00
48589;DHT22;34369;51.174;6.738;2023-02-25T02:56:46;3.50;67.00
48589;DHT22;34369;51.174;6.738;2023-02-25T02:59:23;3.50;67.00
48589;DHT22;34369;51.174;6.738;2023-02-25T03:01:59;3.50;67.00
48589;DHT22;34369;51.174;6.738;2023-02-25T03:04:37;3.50;67.10
48589;DHT22;34369;51.174;6.738;2023-02-25T03:07:11;3.50;67.00
48589;DHT22;34369;51.174;6.738;2023-02-25T03:09:47;3.60;66.90
48589;DHT22;34369;51.174;6.738;2023-02-25T03:12:20;3.50;66.90
48589;DHT22;34369;51.174;6.738;2023-02-25T03:14:52;3.50;66.90
48589;DHT22;34369;51.174;6.738;2023-02-25T03:17:25;3.50;66.80
48589;DHT22;34369;51.174;6.738;2023-02-25T03:20:05;3.50;66.90
48589;DHT22;34369;51.174;6.738;2023-02-25T03:22:42;3.50;67.00
48589;DHT22;34369;51.174;6.738;2023-02-25T03:25:20;3.50;67.00
48589;DHT22;34369;51.174;6.738;2023-02-25T03:27:54;3.50;67.10
48589;DHT22;34369;51.174;6.738;2023-02-25T03:30:31;3.50;67.10
48589;DHT22;34369;51.174;6.738;2023-02-25T03:33:12;3.50;67.10
48589;DHT22;34369;51.174;6.738;2023-02-25T03:35:57;3.50;67.10
48589;DHT22;34369;51.174;6.738;2023-02-25T03:38:31;3.50;67.10
48589;DHT22;34369;51.174;6.738;2023-02-25T03:41:05;3.50;67.10
48589;DHT22;34369;51.174;6.738;2023-02-25T03:43:41;3.50;67.10
48589;DHT22;34369;51.174;6.738;2023-02-25T03:46:17;3.60;67.00
48589;DHT22;34369;51.174;6.738;2023-02-25T03:48:50;3.50;67.00
48589;DHT22;34369;51.174;6.738;2023-02-25T03:51:28;3.60;67.00
48589;DHT22;34369;51.174;6.738;2023-02-25T03:54:01;3.50;67.10
48589;DHT22;34369;51.174;6.738;2023-02-25T03:56:40;3.60;67.00
48589;DHT22;34369;51.174;6.738;2023-02-25T03:59:13;3.60;67.00
48589;DHT22;34369;51.174;6.738;2023-02-25T04:01:48;3.50;67.00
48589;DHT22;34369;51.174;6.738;2023-02-25T04:04:20;3.60;67.00
48589;DHT22;34369;51.174;6.738;2023-02-25T04:06:54;3.60;67.00
48589;DHT22;34369;51.174;6.738;2023-02-25T04:09:26;3.60;67.00
48589;DHT22;34369;51.174;6.738;2023-02-25T04:11:57;3.60;66.90
48589;DHT22;34369;51.174;6.738;2023-02-25T04:14:29;3.60;66.90
48589;DHT22;34369;51.174;6.738;2023-02-25T04:17:01;3.60;67.00
48589;DHT22;34369;51.174;6.738;2023-02-25T04:19:35;3.60;66.90
48589;DHT22;34369;51.174;6.738;2023-02-25T04:22:08;3.60;66.90
48589;DHT22;34369;51.174;6.738;2023-02-25T04:24:41;3.60;66.90
48589;DHT22;34369;51.174;6.738;2023-02-25T04:27:13;3.60;66.80
48589;DHT22;34369;51.174;6.738;2023-02-25T04:29:45;3.60;66.80
48589;DHT22;34369;51.174;6.738;2023-02-25T04:32:17;3.60;66.80
48589;DHT22;34369;51.174;6.738;2023-02-25T04:34:49;3.60;66.80
48589;DHT22;34369;51.174;6.738;2023-02-25T04:37:23;3.60;66.80
48589;DHT22;34369;51.174;6.738;2023-02-25T04:39:55;3.60;66.90
48589;DHT22;34369;51.174;6.738;2023-02-25T04:42:26;3.60;66.90
48589;DHT22;34369;51.174;6.738;2023-02-25T04:44:58;3.60;66.90
48589;DHT22;34369;51.174;6.738;2023-02-25T04:47:30;3.60;66.90
48589;DHT22;34369;51.174;6.738;2023-02-25T04:50:03;3.60;66.80
48589;DHT22;34369;51.174;6.738;2023-02-25T04:52:38;3.60;66.80
48589;DHT22;34369;51.174;6.738;2023-02-25T04:55:10;3.60;66.80
48589;DHT22;34369;51.174;6.738;2023-02-25T04:57:42;3.60;66.80
48589;DHT22;34369;51.174;6.738;2023-02-25T05:00:16;3.60;66.70
48589;DHT22;34369;51.174;6.738;2023-02-25T05:02:50;3.60;66.80
48589;DHT22;34369;51.174;6.738;2023-02-25T05:05:22;3.60;66.80
48589;DHT22;34369;51.174;6.738;2023-02-25T05:07:55;3.60;66.70
48589;DHT22;34369;51.174;6.738;2023-02-25T05:10:27;3.60;66.80
48589;DHT22;34369;51.174;6.738;2023-02-25T05:12:59;3.60;66.80
48589;DHT22;34369;51.174;6.738;2023-02-25T05:15:31;3.60;66.90
48589;DHT22;34369;51.174;6.738;2023-02-25T05:18:04;3.60;66.90
48589;DHT22;34369;51.174;6.738;2023-02-25T05:20:38;3.60;66.90
48589;DHT22;34369;51.174;6.738;2023-02-25T05:23:12;3.60;66.90
48589;DHT22;34369;51.174;6.738;2023-02-25T05:25:44;3.60;66.90
48589;DHT22;34369;51.174;6.738;2023-02-25T05:28:16;3.60;66.80
48589;DHT22;34369;51.174;6.738;2023-02-25T05:30:48;3.60;66.90
48589;DHT22;34369;51.174;6.738;2023-02-25T05:33:21;3.60;66.90
48589;DHT22;34369;51.174;6.738;2023-02-25T05:35:53;3.60;66.90
48589;DHT22;34369;51.174;6.738;2023-02-25T05:38:27;3.60;66.90
48589;DHT22;34369;51.174;6.738;2023-02-25T05:40:59;3.60;67.00
48589;DHT22;34369;51.174;6.738;2023-02-25T05:43:31;3.60;67.00
48589;DHT22;34369;51.174;6.738;2023-02-25T05:46:04;3.60;67.00
48589;DHT22;34369;51.174;6.738;2023-02-25T05:48:42;3.60;67.00
48589;DHT22;34369;51.174;6.738;2023-02-25T05:51:18;3.60;66.90
48589;DHT22;34369;51.174;6.738;2023-02-25T05:53:53;3.60;67.00
48589;DHT22;34369;51.174;6.738;2023-02-25T05:56:26;3.60;67.00
48589;DHT22;34369;51.174;6.738;2023-02-25T05:58:59;3.60;67.00
48589;DHT22;34369;51.174;6.738;2023-02-25T06:01:31;3.60;67.00
48589;DHT22;34369;51.174;6.738;2023-02-25T06:04:03;3.60;67.00
48589;DHT22;34369;51.174;6.738;2023-02-25T06:06:35;3.60;67.00
48589;DHT22;34369;51.174;6.738;2023-02-25T06:09:09;3.60;67.00
48589;DHT22;34369;51.174;6.738;2023-02-25T06:11:40;3.60;67.00
48589;DHT22;34369;51.174;6.738;2023-02-25T06:14:13;3.60;67.00
48589;DHT22;34369;51.174;6.738;2023-02-25T06:16:46;3.60;67.00
48589;DHT22;34369;51.174;6.738;2023-02-25T06:19:18;3.60;67.00
48589;DHT22;34369;51.174;6.738;2023-02-25T06:21:50;3.60;67.00
48589;DHT22;34369;51.174;6.738;2023-02-25T06:24:25;3.60;67.00
48589;DHT22;34369;51.174;6.738;2023-02-25T06:26:57;3.50;67.10
48589;DHT22;34369;51.174;6.738;2023-02-25T06:29:29;3.50;67.00
48589;DHT22;34369;51.174;6.738;2023-02-25T06:32:01;3.50;67.00
48589;DHT22;34369;51.174;6.738;2023-02-25T06:34:33;3.50;67.00
48589;DHT22;34369;51.174;6.738;2023-02-25T06:37:05;3.50;67.00
48589;DHT22;34369;51.174;6.738;2023-02-25T06:39:39;3.50;67.10
48589;DHT22;34369;51.174;6.738;2023-02-25T06:42:12;3.50;67.10
48589;DHT22;34369;51.174;6.738;2023-02-25T06:44:44;3.50;67.10
48589;DHT22;34369;51.174;6.738;2023-02-25T06:47:16;3.50;67.10
48589;DHT22;34369;51.174;6.738;2023-02-25T06:49:48;3.50;67.10
48589;DHT22;34369;51.174;6.738;2023-02-25T06:52:20;3.50;67.10
48589;DHT22;34369;51.174;6.738;2023-02-25T06:54:53;3.50;67.20
48589;DHT22;34369;51.174;6.738;2023-02-25T06:57:25;3.50;67.10
48589;DHT22;34369;51.174;6.738;2023-02-25T06:59:57;3.50;67.10
48589;DHT22;34369;51.174;6.738;2023-02-25T07:02:29;3.50;67.20
48589;DHT22;34369;51.174;6.738;2023-02-25T07:05:01;3.50;67.20
48589;DHT22;34369;51.174;6.738;2023-02-25T07:07:35;3.60;67.20
48589;DHT22;34369;51.174;6.738;2023-02-25T07:10:10;3.50;67.20
48589;DHT22;34369;51.174;6.738;2023-02-25T07:12:42;3.50;67.20
48589;DHT22;34369;51.174;6.738;2023-02-25T07:15:14;3.60;67.20
48589;DHT22;34369;51.174;6.738;2023-02-25T07:17:46;3.60;67.20
48589;DHT22;34369;51.174;6.738;2023-02-25T07:20:18;3.60;67.30
48589;DHT22;34369;51.174;6.738;2023-02-25T07:22:50;3.60;67.30
48589;DHT22;34369;51.174;6.738;2023-02-25T07:25:23;3.60;67.30
48589;DHT22;34369;51.174;6.738;2023-02-25T07:27:56;3.60;67.30
48589;DHT22;34369;51.174;6.738;2023-02-25T07:30:28;3.60;67.30
48589;DHT22;34369;51.174;6.738;2023-02-25T07:33:00;3.70;67.40
48589;DHT22;34369;51.174;6.738;2023-02-25T07:35:32;3.70;67.30
48589;DHT22;34369;51.174;6.738;2023-02-25T07:38:04;3.70;67.30
48589;DHT22;34369;51.174;6.738;2023-02-25T07:40:38;3.80;67.30
48589;DHT22;34369;51.174;6.738;2023-02-25T07:43:11;3.80;67.30
48589;DHT22;34369;51.174;6.738;2023-02-25T07:45:44;3.80;67.40
48589;DHT22;34369;51.174;6.738;2023-02-25T07:48:16;3.80;67.40
48589;DHT22;34369;51.174;6.738;2023-02-25T07:50:47;3.90;67.40
48589;DHT22;34369;51.174;6.738;2023-02-25T07:53:19;3.90;67.30
48589;DHT22;34369;51.174;6.738;2023-02-25T07:55:53;4.00;67.30
48589;DHT22;34369;51.174;6.738;2023-02-25T07:58:25;4.00;67.20
48589;DHT22;34369;51.174;6.738;2023-02-25T08:00:58;4.10;67.20
48589;DHT22;34369;51.174;6.738;2023-02-25T08:03:32;4.10;67.10
48589;DHT22;34369;51.174;6.738;2023-02-25T08:06:05;4.20;66.90
48589;DHT22;34369;51.174;6.738;2023-02-25T08:08:38;4.20;66.40
48589;DHT22;34369;51.174;6.738;2023-02-25T08:11:13;4.20;66.50
48589;DHT22;34369;51.174;6.738;2023-02-25T08:13:45;4.20;66.40
48589;DHT22;34369;51.174;6.738;2023-02-25T08:16:19;4.30;66.40
48589;DHT22;34369;51.174;6.738;2023-02-25T08:18:52;4.30;66.30
48589;DHT22;34369;51.174;6.738;2023-02-25T08:21:25;4.30;66.10
48589;DHT22;34369;51.174;6.738;2023-02-25T08:23:57;4.40;66.10
48589;DHT22;34369;51.174;6.738;2023-02-25T08:26:31;4.40;66.10
48589;DHT22;34369;51.174;6.738;2023-02-25T08:29:04;4.50;66.00
48589;DHT22;34369;51.174;6.738;2023-02-25T08:31:36;4.50;65.60
48589;DHT22;34369;51.174;6.738;2023-02-25T08:34:08;4.50;65.20
48589;DHT22;34369;51.174;6.738;2023-02-25T08:36:41;4.50;65.10
48589;DHT22;34369;51.174;6.738;2023-02-25T08:39:13;4.50;64.80
48589;DHT22;34369;51.174;6.738;2023-02-25T08:41:47;4.50;64.80
48589;DHT22;34369;51.174;6.738;2023-02-25T08:44:19;4.50;64.70
48589;DHT22;34369;51.174;6.738;2023-02-25T08:46:51;4.50;64.80
48589;DHT22;34369;51.174;6.738;2023-02-25T08:49:23;4.50;64.90
48589;DHT22;34369;51.174;6.738;2023-02-25T08:51:55;4.50;64.90
48589;DHT22;34369;51.174;6.738;2023-02-25T08:54:27;4.50;65.00
48589;DHT22;34369;51.174;6.738;2023-02-25T08:57:01;4.50;65.00
48589;DHT22;34369;51.174;6.738;2023-02-25T08:59:33;4.50;65.10
48589;DHT22;34369;51.174;6.738;2023-02-25T09:02:09;4.50;65.30
48589;DHT22;34369;51.174;6.738;2023-02-25T09:04:44;4.50;65.40
48589;DHT22;34369;51.174;6.738;2023-02-25T09:07:16;4.50;65.40
48589;DHT22;34369;51.174;6.738;2023-02-25T09:09:50;4.40;65.60
48589;DHT22;34369;51.174;6.738;2023-02-25T09:12:23;4.40;65.80
48589;DHT22;34369;51.174;6.738;2023-02-25T09:14:55;4.40;65.90
48589;DHT22;34369;51.174;6.738;2023-02-25T09:17:27;4.40;66.00
48589;DHT22;34369;51.174;6.738;2023-02-25T09:19:59;4.40;66.10
48589;DHT22;34369;51.174;6.738;2023-02-25T09:22:35;4.40;66.30
48589;DHT22;34369;51.174;6.738;2023-02-25T09:25:08;4.50;66.70
48589;DHT22;34369;51.174;6.738;2023-02-25T09:27:41;4.50;67.10
48589;DHT22;34369;51.174;6.738;2023-02-25T09:30:13;4.50;67.20
48589;DHT22;34369;51.174;6.738;2023-02-25T09:32:46;4.60;67.20
48589;DHT22;34369;51.174;6.738;2023-02-25T09:35:20;4.70;68.00
48589;DHT22;34369;51.174;6.738;2023-02-25T09:37:52;4.90;68.00
48589;DHT22;34369;51.174;6.738;2023-02-25T09:40:24;5.00;67.70
48589;DHT22;34369;51.174;6.738;2023-02-25T09:43:06;5.10;67.40
48589;DHT22;34369;51.174;6.738;2023-02-25T09:45:43;5.30;66.60
48589;DHT22;34369;51.174;6.738;2023-02-25T09:48:19;5.40;66.60
48589;DHT22;34369;51.174;6.738;2023-02-25T09:51:02;5.50;66.40
48589;DHT22;34369;51.174;6.738;2023-02-25T09:53:40;5.60;65.70
48589;DHT22;34369;51.174;6.738;2023-02-25T09:56:15;5.70;65.40
48589;DHT22;34369;51.174;6.738;2023-02-25T09:58:53;5.80;65.30
48589;DHT22;34369;51.174;6.738;2023-02-25T10:01:32;5.90;64.50
48589;DHT22;34369;51.174;6.738;2023-02-25T10:04:14;5.90;64.00
48589;DHT22;34369;51.174;6.738;2023-02-25T10:06:48;6.00;63.80
48589;DHT22;34369;51.174;6.738;2023-02-25T10:09:29;6.10;63.90
48589;DHT22;34369;51.174;6.738;2023-02-25T10:12:14;6.10;63.90
48589;DHT22;34369;51.174;6.738;2023-02-25T10:15:07;6.20;63.70
48589;DHT22;34369;51.174;6.738;2023-02-25T10:18:13;6.30;63.10
48589;DHT22;34369;51.174;6.738;2023-02-25T10:20:56;6.40;62.20
48589;DHT22;34369;51.174;6.738;2023-02-25T10:23:42;6.30;62.30
48589;DHT22;34369;51.174;6.738;2023-02-25T10:26:22;6.30;62.00
48589;DHT22;34369;51.174;6.738;2023-02-25T10:28:58;6.20;62.00
48589;DHT22;34369;51.174;6.738;2023-02-25T10:31:34;6.10;62.00
48589;DHT22;34369;51.174;6.738;2023-02-25T10:34:18;6.00;61.90
48589;DHT22;34369;51.174;6.738;2023-02-25T10:36:54;5.80;61.50
48589;DHT22;34369;51.174;6.738;2023-02-25T10:39:27;5.60;61.50
48589;DHT22;34369;51.174;6.738;2023-02-25T10:42:00;5.50;61.70
48589;DHT22;34369;51.174;6.738;2023-02-25T10:44:32;5.30;61.90
48589;DHT22;34369;51.174;6.738;2023-02-25T10:47:10;5.00;62.10
48589;DHT22;34369;51.174;6.738;2023-02-25T10:50:09;4.90;62.10
48589;DHT22;34369;51.174;6.738;2023-02-25T10:52:58;4.70;62.00
48589;DHT22;34369;51.174;6.738;2023-02-25T10:55:49;4.40;62.20
48589;DHT22;34369;51.174;6.738;2023-02-25T10:58:30;4.20;62.50
48589;DHT22;34369;51.174;6.738;2023-02-25T11:01:14;4.00;62.70
48589;DHT22;34369;51.174;6.738;2023-02-25T11:03:54;3.80;63.00
48589;DHT22;34369;51.174;6.738;2023-02-25T11:06:30;3.70;63.50
48589;DHT22;34369;51.174;6.738;2023-02-25T11:09:28;3.60;63.90
48589;DHT22;34369;51.174;6.738;2023-02-25T11:12:15;3.50;64.60
48589;DHT22;34369;51.174;6.738;2023-02-25T11:14:49;3.40;65.10
48589;DHT22;34369;51.174;6.738;2023-02-25T11:17:22;3.40;65.60
48589;DHT22;34369;51.174;6.738;2023-02-25T11:20:00;3.40;66.20
48589;DHT22;34369;51.174;6.738;2023-02-25T11:22:37;3.40;67.00
48589;DHT22;34369;51.174;6.738;2023-02-25T11:25:17;3.50;67.90
48589;DHT22;34369;51.174;6.738;2023-02-25T11:27:54;3.70;69.00
48589;DHT22;34369;51.174;6.738;2023-02-25T11:30:31;3.90;69.00
48589;DHT22;34369;51.174;6.738;2023-02-25T11:33:17;4.10;69.10
48589;DHT22;34369;51.174;6.738;2023-02-25T11:35:55;4.40;68.50
48589;DHT22;34369;51.174;6.738;2023-02-25T11:38:33;4.50;68.20
48589;DHT22;34369;51.174;6.738;2023-02-25T11:41:15;4.70;67.40
48589;DHT22;34369;51.174;6.738;2023-02-25T11:43:49;4.90;66.70
48589;DHT22;34369;51.174;6.738;2023-02-25T11:46:24;5.00;67.00
48589;DHT22;34369;51.174;6.738;2023-02-25T11:49:10;5.00;67.50
48589;DHT22;34369;51.174;6.738;2023-02-25T11:51:49;5.10;67.70
48589;DHT22;34369;51.174;6.738;2023-02-25T11:54:26;5.30;68.20
48589;DHT22;34369;51.174;6.738;2023-02-25T11:57:06;5.50;68.70
48589;DHT22;34369;51.174;6.738;2023-02-25T11:59:48;5.70;68.10
48589;DHT22;34369;51.174;6.738;2023-02-25T12:02:42;5.90;67.40
48589;DHT22;34369;51.174;6.738;2023-02-25T12:05:49;6.10;66.50
48589;DHT22;34369;51.174;6.738;2023-02-25T12:08:34;6.30;66.60
48589;DHT22;34369;51.174;6.738;2023-02-25T12:11:34;6.50;66.20
48589;DHT22;34369;51.174;6.738;2023-02-25T12:14:51;6.70;66.20
48589;DHT22;34369;51.174;6.738;2023-02-25T12:22:40;7.20;64.50
48589;DHT22;34369;51.174;6.738;2023-02-25T12:34:19;7.60;61.10
48589;DHT22;34369;51.174;6.738;2023-02-25T12:41:48;7.50;60.10
48589;DHT22;34369;51.174;6.738;2023-02-25T13:15:51;7.50;55.50
48589;DHT22;34369;51.174;6.738;2023-02-25T13:19:27;7.30;56.70
48589;DHT22;34369;51.174;6.738;2023-02-25T13:22:55;7.50;56.80
48589;DHT22;34369;51.174;6.738;2023-02-25T13:30:00;8.40;56.80
48589;DHT22;34369;51.174;6.738;2023-02-25T13:33:40;8.90;55.90
48589;DHT22;34369;51.174;6.738;2023-02-25T13:37:43;9.40;53.60
48589;DHT22;34369;51.174;6.738;2023-02-25T13:41:42;9.60;51.70
48589;DHT22;34369;51.174;6.738;2023-02-25T13:49:24;9.40;49.70
48589;DHT22;34369;51.174;6.738;2023-02-25T13:52:50;9.20;49.30
48589;DHT22;34369;51.174;6.738;2023-02-25T13:56:25;9.10;51.20
48589;DHT22;34369;51.174;6.738;2023-02-25T14:00:21;9.30;49.50
48589;DHT22;34369;51.174;6.738;2023-02-25T14:10:41;10.30;46.70
48589;DHT22;34369;51.174;6.738;2023-02-25T14:14:22;10.50;46.60
48589;DHT22;34369;51.174;6.738;2023-02-25T14:25:44;11.00;45.00
48589;DHT22;34369;51.174;6.738;2023-02-25T14:29:15;11.00;44.20
48589;DHT22;34369;51.174;6.738;2023-02-25T14:32:31;11.00;43.10
48589;DHT22;34369;51.174;6.738;2023-02-25T14:38:39;10.80;42.30
48589;DHT22;34369;51.174;6.738;2023-02-25T14:48:08;10.20;40.90
48589;DHT22;34369;51.174;6.738;2023-02-25T14:55:39;9.50;39.90
48589;DHT22;34369;51.174;6.738;2023-02-25T15:10:43;8.50;42.00
48589;DHT22;34369;51.174;6.738;2023-02-25T15:21:50;8.40;41.50
48589;DHT22;34369;51.174;6.738;2023-02-25T15:33:20;8.50;40.10
48589;DHT22;34369;51.174;6.738;2023-02-25T15:44:53;8.20;40.00
48589;DHT22;34369;51.174;6.738;2023-02-25T15:48:37;8.10;40.50
48589;DHT22;34369;51.174;6.738;2023-02-25T15:51:55;7.80;40.60
48589;DHT22;34369;51.174;6.738;2023-02-25T15:58:58;7.50;41.50
48589;DHT22;34369;51.174;6.738;2023-02-25T16:01:56;7.20;40.80
48589;DHT22;34369;51.174;6.738;2023-02-25T16:04:50;7.00;41.50
48589;DHT22;34369;51.174;6.738;2023-02-25T16:08:10;6.90;41.70
48589;DHT22;34369;51.174;6.738;2023-02-25T16:11:56;6.70;42.00
48589;DHT22;34369;51.174;6.738;2023-02-25T16:14:45;6.60;41.70
48589;DHT22;34369;51.174;6.738;2023-02-25T16:17:37;6.50;41.90
48589;DHT22;34369;51.174;6.738;2023-02-25T16:24:38;6.30;41.80
48589;DHT22;34369;51.174;6.738;2023-02-25T16:27:47;6.00;41.60
48589;DHT22;34369;51.174;6.738;2023-02-25T16:30:58;5.90;41.50
48589;DHT22;34369;51.174;6.738;2023-02-25T16:33:48;5.70;41.50
48589;DHT22;34369;51.174;6.738;2023-02-25T16:37:14;5.60;42.10
48589;DHT22;34369;51.174;6.738;2023-02-25T16:48:14;5.20;42.00
48589;DHT22;34369;51.174;6.738;2023-02-25T16:51:49;5.00;42.20
48589;DHT22;34369;51.174;6.738;2023-02-25T16:55:29;4.90;42.50
48589;DHT22;34369;51.174;6.738;2023-02-25T16:58:57;4.80;43.00
48589;DHT22;34369;51.174;6.738;2023-02-25T17:04:57;4.60;43.00
48589;DHT22;34369;51.174;6.738;2023-02-25T17:08:13;4.50;43.50
48589;DHT22;34369;51.174;6.738;2023-02-25T17:15:18;4.30;43.70
48589;DHT22;34369;51.174;6.738;2023-02-25T17:18:19;4.20;43.70
48589;DHT22;34369;51.174;6.738;2023-02-25T17:21:50;4.10;43.90
48589;DHT22;34369;51.174;6.738;2023-02-25T17:25:31;4.00;43.80
48589;DHT22;34369;51.174;6.738;2023-02-25T17:29:00;3.90;44.20
48589;DHT22;34369;51.174;6.738;2023-02-25T17:31:47;3.80;44.00
48589;DHT22;34369;51.174;6.738;2023-02-25T17:34:36;3.70;44.20
48589;DHT22;34369;51.174;6.738;2023-02-25T17:37:21;3.70;43.90
48589;DHT22;34369;51.174;6.738;2023-02-25T17:40:19;3.60;44.10
48589;DHT22;34369;51.174;6.738;2023-02-25T17:43:22;3.60;44.50
48589;DHT22;34369;51.174;6.738;2023-02-25T17:46:12;3.50;44.60
48589;DHT22;34369;51.174;6.738;2023-02-25T17:48:50;3.50;44.50
48589;DHT22;34369;51.174;6.738;2023-02-25T17:51:31;3.40;44.80
48589;DHT22;34369;51.174;6.738;2023-02-25T17:54:07;3.40;44.90
48589;DHT22;34369;51.174;6.738;2023-02-25T17:56:45;3.30;45.20
48589;DHT22;34369;51.174;6.738;2023-02-25T17:59:33;3.30;45.10
48589;DHT22;34369;51.174;6.738;2023-02-25T18:02:31;3.20;45.40
48589;DHT22;34369;51.174;6.738;2023-02-25T18:05:18;3.20;45.30
48589;DHT22;34369;51.174;6.738;2023-02-25T18:08:16;3.20;45.50
48589;DHT22;34369;51.174;6.738;2023-02-25T18:10:58;3.10;45.10
48589;DHT22;34369;51.174;6.738;2023-02-25T18:13:35;3.10;45.30
48589;DHT22;34369;51.174;6.738;2023-02-25T18:18:53;3.00;45.20
48589;DHT22;34369;51.174;6.738;2023-02-25T18:21:26;3.00;45.40
48589;DHT22;34369;51.174;6.738;2023-02-25T18:23:58;3.00;45.60
48589;DHT22;34369;51.174;6.738;2023-02-25T18:26:31;3.00;45.60
48589;DHT22;34369;51.174;6.738;2023-02-25T18:29:07;2.90;45.80
48589;DHT22;34369;51.174;6.738;2023-02-25T18:31:40;2.90;45.70
48589;DHT22;34369;51.174;6.738;2023-02-25T18:34:14;2.80;45.80
48589;DHT22;34369;51.174;6.738;2023-02-25T18:36:46;2.80;45.90
48589;DHT22;34369;51.174;6.738;2023-02-25T18:39:19;2.80;45.90
48589;DHT22;34369;51.174;6.738;2023-02-25T18:41:52;2.80;46.10
48589;DHT22;34369;51.174;6.738;2023-02-25T18:44:24;2.80;46.30
48589;DHT22;34369;51.174;6.738;2023-02-25T18:46:56;2.70;46.30
48589;DHT22;34369;51.174;6.738;2023-02-25T18:49:29;2.70;46.50
48589;DHT22;34369;51.174;6.738;2023-02-25T18:52:02;2.60;46.40
48589;DHT22;34369;51.174;6.738;2023-02-25T18:54:34;2.60;46.40
48589;DHT22;34369;51.174;6.738;2023-02-25T18:57:22;2.60;46.50
48589;DHT22;34369;51.174;6.738;2023-02-25T18:59:55;2.60;46.50
48589;DHT22;34369;51.174;6.738;2023-02-25T19:02:29;2.50;46.80
48589;DHT22;34369;51.174;6.738;2023-02-25T19:05:04;2.50;46.90
48589;DHT22;34369;51.174;6.738;2023-02-25T19:07:37;2.50;47.00
48589;DHT22;34369;51.174;6.738;2023-02-25T19:10:13;2.50;47.10
48589;DHT22;34369;51.174;6.738;2023-02-25T19:12:47;2.50;47.10
48589;DHT22;34369;51.174;6.738;2023-02-25T19:15:20;2.40;47.20
48589;DHT22;34369;51.174;6.738;2023-02-25T19:17:52;2.40;47.20
48589;DHT22;34369;51.174;6.738;2023-02-25T19:20:26;2.40;47.30
48589;DHT22;34369;51.174;6.738;2023-02-25T19:22:58;2.40;47.50
48589;DHT22;34369;51.174;6.738;2023-02-25T19:25:33;2.30;47.60
48589;DHT22;34369;51.174;6.738;2023-02-25T19:28:06;2.30;47.60
48589;DHT22;34369;51.174;6.738;2023-02-25T19:30:40;2.30;47.80
48589;DHT22;34369;51.174;6.738;2023-02-25T19:33:13;2.30;47.80
48589;DHT22;34369;51.174;6.738;2023-02-25T19:35:46;2.30;48.10
48589;DHT22;34369;51.174;6.738;2023-02-25T19:38:19;2.20;48.00
48589;DHT22;34369;51.174;6.738;2023-02-25T19:40:51;2.20;48.30
48589;DHT22;34369;51.174;6.738;2023-02-25T19:43:23;2.20;48.20
48589;DHT22;34369;51.174;6.738;2023-02-25T19:45:55;2.20;48.30
48589;DHT22;34369;51.174;6.738;2023-02-25T19:48:27;2.10;48.50
48589;DHT22;34369;51.174;6.738;2023-02-25T19:51:05;2.10;48.60